createdAt,value
2017-08-23T00:01:25.708Z,101394.98
2017-08-23T00:03:53.108Z,101392.45
2017-08-23T00:06:20.495Z,101384.55
2017-08-23T00:08:47.903Z,101387.41
2017-08-23T00:11:15.298Z,101390.50
2017-08-23T00:13:42.703Z,101382.77
2017-08-23T00:16:10.091Z,101379.06
2017-08-23T00:18:37.481Z,101375.23
2017-08-23T00:21:04.879Z,101383.84
2017-08-23T00:23:32.275Z,101377.76
2017-08-23T00:25:59.707Z,101377.30
2017-08-23T00:28:27.095Z,101370.34
2017-08-23T00:30:54.500Z,101369.73
2017-08-23T00:33:21.896Z,101366.68
2017-08-23T00:35:49.538Z,101371.39
2017-08-23T00:38:16.931Z,101367.17
2017-08-23T00:40:44.331Z,101367.72
2017-08-23T00:43:11.719Z,101371.62
2017-08-23T00:45:39.145Z,101368.85
2017-08-23T00:48:06.527Z,101365.56
2017-08-23T00:50:34.183Z,101365.24
2017-08-23T00:53:01.567Z,101366.61
2017-08-23T00:55:28.983Z,101365.47
2017-08-23T00:57:56.371Z,101365.64
2017-08-23T01:00:23.767Z,101369.50
2017-08-23T01:02:51.177Z,101373.05
2017-08-23T01:05:18.563Z,101375.06
2017-08-23T01:07:45.966Z,101371.17
2017-08-23T01:10:13.359Z,101366.70
2017-08-23T01:12:40.746Z,101371.08
2017-08-23T01:15:08.133Z,101371.97
2017-08-23T01:17:35.537Z,101368.72
2017-08-23T01:20:02.927Z,101377.38
2017-08-23T01:22:30.323Z,101378.70
2017-08-23T01:24:57.789Z,101376.33
2017-08-23T01:27:25.171Z,101384.78
2017-08-23T01:29:52.560Z,101374.57
2017-08-23T01:32:19.962Z,101372.17
2017-08-23T01:34:47.351Z,101368.91
2017-08-23T01:37:14.760Z,101371.64
2017-08-23T01:39:42.150Z,101364.86
2017-08-23T01:42:09.535Z,101375.55
2017-08-23T01:44:37.198Z,101374.98
2017-08-23T01:47:04.598Z,101369.92
2017-08-23T01:49:31.987Z,101370.88
2017-08-23T01:51:59.377Z,101367.94
2017-08-23T01:54:26.775Z,101366.54
2017-08-23T01:56:54.191Z,101361.38
2017-08-23T01:59:21.586Z,101353.38
2017-08-23T02:01:48.986Z,101360.77
2017-08-23T02:04:16.381Z,101357.77
2017-08-23T02:06:43.762Z,101352.70
2017-08-23T02:09:11.167Z,101350.90
2017-08-23T02:11:38.823Z,101355.91
2017-08-23T02:14:06.475Z,101357.27
2017-08-23T02:16:33.859Z,101352.83
2017-08-23T02:19:01.243Z,101353.47
2017-08-23T02:21:28.644Z,101355.25
2017-08-23T02:23:56.029Z,101354.77
2017-08-23T02:26:23.658Z,101349.60
2017-08-23T02:28:51.046Z,101347.81
2017-08-23T02:31:18.442Z,101343.89
2017-08-23T02:33:45.827Z,101347.23
2017-08-23T02:36:13.222Z,101345.72
2017-08-23T02:38:40.615Z,101346.25
2017-08-23T02:41:08.014Z,101343.25
2017-08-23T02:43:35.403Z,101340.38
2017-08-23T02:46:02.798Z,101338.36
2017-08-23T02:48:30.189Z,101333.42
2017-08-23T02:50:57.815Z,101332.08
2017-08-23T02:53:25.208Z,101332.35
2017-08-23T02:55:52.610Z,101331.61
2017-08-23T02:58:20.006Z,101329.13
2017-08-23T03:00:47.400Z,101327.93
2017-08-23T03:03:15.099Z,101329.31
2017-08-23T03:05:42.488Z,101323.14
2017-08-23T03:08:09.878Z,101328.90
2017-08-23T03:10:37.258Z,101324.84
2017-08-23T03:13:04.659Z,101326.05
2017-08-23T03:15:32.043Z,101325.54
2017-08-23T03:17:59.445Z,101322.28
2017-08-23T03:20:27.090Z,101322.31
2017-08-23T03:22:54.490Z,101321.80
2017-08-23T03:25:21.880Z,101322.48
2017-08-23T03:27:49.274Z,101323.60
2017-08-23T03:30:16.685Z,101324.59
2017-08-23T03:32:44.087Z,101327.07
2017-08-23T03:35:11.470Z,101325.89
2017-08-23T03:37:38.860Z,101327.41
2017-08-23T03:40:06.252Z,101324.63
2017-08-23T03:42:33.642Z,101329.02
2017-08-23T03:45:01.030Z,101327.41
2017-08-23T03:47:28.419Z,101329.86
2017-08-23T03:49:55.811Z,101326.95
2017-08-23T03:52:23.518Z,101325.00
2017-08-23T03:54:50.914Z,101328.92
2017-08-23T03:57:18.298Z,101324.52
2017-08-23T03:59:45.696Z,101323.45
2017-08-23T04:02:13.182Z,101326.75
2017-08-23T04:04:40.576Z,101328.45
2017-08-23T04:07:08.258Z,101328.59
2017-08-23T04:09:35.653Z,101332.03
2017-08-23T04:12:03.035Z,101330.14
2017-08-23T04:14:30.434Z,101330.37
2017-08-23T04:16:57.818Z,101334.83
2017-08-23T04:19:25.207Z,101328.75
2017-08-23T04:21:52.610Z,101329.86
2017-08-23T04:24:20.007Z,101328.61
2017-08-23T04:26:47.402Z,101328.28
2017-08-23T04:29:15.084Z,101330.98
2017-08-23T04:31:42.479Z,101323.79
2017-08-23T04:34:09.887Z,101326.36
2017-08-23T04:36:37.286Z,101324.13
2017-08-23T04:39:04.674Z,101335.90
2017-08-23T04:41:32.067Z,101331.52
2017-08-23T04:43:59.550Z,101325.63
2017-08-23T04:46:26.951Z,101327.37
2017-08-23T04:48:54.343Z,101325.00
2017-08-23T04:51:21.778Z,101328.14
2017-08-23T04:53:49.163Z,101320.03
2017-08-23T04:56:16.559Z,101322.91
2017-08-23T04:58:43.952Z,101321.16
2017-08-23T05:01:11.358Z,101320.27
2017-08-23T05:03:38.747Z,101315.73
2017-08-23T05:06:06.147Z,101309.53
2017-08-23T05:08:33.539Z,101313.77
2017-08-23T05:11:00.936Z,101317.66
2017-08-23T05:13:28.343Z,101320.80
2017-08-23T05:15:56.018Z,101317.75
2017-08-23T05:18:23.426Z,101317.33
2017-08-23T05:20:50.823Z,101311.62
2017-08-23T05:23:18.236Z,101320.12
2017-08-23T05:25:45.621Z,101312.36
2017-08-23T05:30:51.963Z,101312.46
2017-08-23T05:33:19.359Z,101317.80
2017-08-23T05:35:46.748Z,101322.82
2017-08-23T05:38:14.167Z,101319.54
2017-08-23T05:40:41.542Z,101318.74
2017-08-23T05:43:08.950Z,101320.23
2017-08-23T05:45:36.329Z,101320.30
2017-08-23T05:48:03.716Z,101318.99
2017-08-23T05:50:31.116Z,101322.80
2017-08-23T05:52:58.500Z,101319.23
2017-08-23T05:55:25.898Z,101319.18
2017-08-23T05:57:53.531Z,101316.62
2017-08-23T06:00:20.942Z,101316.48
2017-08-23T06:02:48.326Z,101318.34
2017-08-23T06:05:15.727Z,101310.83
2017-08-23T06:07:43.126Z,101316.59
2017-08-23T06:10:10.594Z,101313.31
2017-08-23T06:12:37.978Z,101308.64
2017-08-23T06:15:05.375Z,101318.05
2017-08-23T06:17:32.763Z,101311.84
2017-08-23T06:20:00.184Z,101312.66
2017-08-23T06:22:27.573Z,101311.33
2017-08-23T06:24:54.975Z,101314.59
2017-08-23T06:27:22.364Z,101315.87
2017-08-23T06:29:49.774Z,101314.77
2017-08-23T06:32:17.170Z,101311.56
2017-08-23T06:34:44.564Z,101306.70
2017-08-23T06:37:11.956Z,101305.08
2017-08-23T06:39:39.568Z,101312.48
2017-08-23T06:42:06.983Z,101309.22
2017-08-23T06:44:34.371Z,101306.83
2017-08-23T06:47:01.762Z,101311.15
2017-08-23T06:49:29.151Z,101314.44
2017-08-23T06:51:56.546Z,101310.62
2017-08-23T06:54:23.939Z,101308.74
2017-08-23T06:56:51.344Z,101315.57
2017-08-23T06:59:18.742Z,101311.66
2017-08-23T07:01:46.138Z,101312.59
2017-08-23T07:04:13.538Z,101310.83
2017-08-23T07:06:40.926Z,101311.31
2017-08-23T07:09:08.317Z,101307.87
2017-08-23T07:11:35.719Z,101312.50
2017-08-23T07:14:03.127Z,101309.09
2017-08-23T07:16:30.530Z,101305.63
2017-08-23T07:18:57.937Z,101309.80
2017-08-23T07:21:25.333Z,101307.36
2017-08-23T07:23:52.731Z,101307.27
2017-08-23T07:26:20.131Z,101307.66
2017-08-23T07:28:47.749Z,101309.77
2017-08-23T07:31:15.184Z,101305.24
2017-08-23T07:33:42.778Z,101312.53
2017-08-23T07:36:10.166Z,101304.91
2017-08-23T07:38:37.774Z,101309.16
2017-08-23T07:41:05.194Z,101309.39
2017-08-23T07:43:32.599Z,101309.95
2017-08-23T07:46:00.000Z,101306.45
2017-08-23T07:48:27.612Z,101303.28
2017-08-23T07:50:55.016Z,101303.38
2017-08-23T07:53:22.429Z,101305.31
2017-08-23T07:55:49.810Z,101308.44
2017-08-23T07:58:17.213Z,101304.35
2017-08-23T08:00:44.620Z,101304.59
2017-08-23T08:03:12.024Z,101312.56
2017-08-23T08:05:39.403Z,101313.67
2017-08-23T08:08:06.807Z,101313.62
2017-08-23T08:10:34.209Z,101313.12
2017-08-23T08:13:01.606Z,101315.88
2017-08-23T08:15:29.012Z,101320.12
2017-08-23T08:17:56.398Z,101310.14
2017-08-23T08:20:23.910Z,101307.33
2017-08-23T08:22:51.283Z,101307.84
2017-08-23T08:25:18.696Z,101314.54
2017-08-23T08:27:46.084Z,101320.01
2017-08-23T08:30:13.492Z,101313.02
2017-08-23T08:32:40.881Z,101313.55
2017-08-23T08:35:08.482Z,101316.79
2017-08-23T08:37:35.879Z,101314.98
2017-08-23T08:40:03.278Z,101314.87
2017-08-23T08:42:30.712Z,101312.33
2017-08-23T08:44:58.087Z,101315.27
2017-08-23T08:47:25.480Z,101311.84
2017-08-23T08:49:52.867Z,101318.09
2017-08-23T08:52:20.263Z,101315.54
2017-08-23T08:54:47.654Z,101311.67
2017-08-23T08:57:15.059Z,101315.97
2017-08-23T08:59:42.452Z,101318.13
2017-08-23T09:02:09.851Z,101320.86
2017-08-23T09:04:37.285Z,101313.59
2017-08-23T09:07:04.670Z,101318.30
2017-08-23T09:09:32.063Z,101309.14
2017-08-23T09:11:59.460Z,101316.41
2017-08-23T09:14:26.851Z,101304.64
2017-08-23T09:16:54.247Z,101308.16
2017-08-23T09:19:21.643Z,101303.97
2017-08-23T09:21:49.039Z,101302.24
2017-08-23T09:24:16.434Z,101301.95
2017-08-23T09:26:43.821Z,101293.94
2017-08-23T09:29:11.211Z,101296.62
2017-08-23T09:31:38.598Z,101300.39
2017-08-23T09:34:06.000Z,101298.23
2017-08-23T09:36:33.410Z,101287.70
2017-08-23T09:39:00.814Z,101290.67
2017-08-23T09:41:28.214Z,101289.18
2017-08-23T09:43:55.604Z,101290.82
2017-08-23T09:46:22.994Z,101285.61
2017-08-23T09:48:50.387Z,101285.36
2017-08-23T09:51:17.782Z,101284.93
2017-08-23T09:53:45.183Z,101290.47
2017-08-23T09:56:12.580Z,101286.45
2017-08-23T09:58:40.186Z,101281.98
2017-08-23T10:01:07.584Z,101285.77
2017-08-23T10:03:34.974Z,101286.20
2017-08-23T10:06:02.375Z,101281.27
2017-08-23T10:08:29.758Z,101276.30
2017-08-23T10:10:57.163Z,101274.35
2017-08-23T10:13:24.559Z,101277.14
2017-08-23T10:15:51.956Z,101277.10
2017-08-23T10:18:19.356Z,101271.16
2017-08-23T10:20:46.747Z,101273.48
2017-08-23T10:23:14.139Z,101269.42
2017-08-23T10:25:41.527Z,101274.44
2017-08-23T10:28:08.931Z,101265.47
2017-08-23T10:30:36.315Z,101276.14
2017-08-23T10:33:03.711Z,101268.45
2017-08-23T10:35:31.328Z,101259.20
2017-08-23T10:37:58.728Z,101259.84
2017-08-23T10:40:26.115Z,101250.19
2017-08-23T10:42:53.525Z,101259.48
2017-08-23T10:45:20.919Z,101257.05
2017-08-23T10:47:48.319Z,101248.78
2017-08-23T10:50:15.709Z,101249.64
2017-08-23T10:52:43.108Z,101246.25
2017-08-23T10:55:10.494Z,101243.31
2017-08-23T10:57:37.904Z,101241.64
2017-08-23T11:00:05.317Z,101241.55
2017-08-23T11:02:32.731Z,101232.73
2017-08-23T11:05:00.147Z,101240.48
2017-08-23T11:07:27.550Z,101232.86
2017-08-23T11:09:54.951Z,101237.02
2017-08-23T11:12:22.357Z,101230.81
2017-08-23T11:14:49.751Z,101232.47
2017-08-23T11:17:17.143Z,101233.56
2017-08-23T11:19:44.547Z,101227.56
2017-08-23T11:22:11.922Z,101227.38
2017-08-23T11:24:39.326Z,101219.11
2017-08-23T11:27:07.611Z,101214.23
2017-08-23T11:29:35.029Z,101211.06
2017-08-23T11:32:02.415Z,101207.30
2017-08-23T11:34:29.815Z,101211.75
2017-08-23T11:36:57.215Z,101208.04
2017-08-23T11:39:24.618Z,101206.16
2017-08-23T11:41:52.000Z,101197.30
2017-08-23T11:44:19.400Z,101196.22
2017-08-23T11:46:46.790Z,101193.83
2017-08-23T11:49:14.190Z,101204.03
2017-08-23T11:54:01.571Z,101197.05
2017-08-23T11:56:28.964Z,101182.37
2017-08-23T11:58:56.359Z,101190.96
2017-08-23T12:01:23.755Z,101182.05
2017-08-23T12:03:51.164Z,101184.37
2017-08-23T12:06:18.547Z,101177.33
2017-08-23T12:08:45.931Z,101178.33
2017-08-23T12:11:13.326Z,101179.19
2017-08-23T12:13:41.036Z,101189.77
2017-08-23T12:16:08.492Z,101186.92
2017-08-23T12:18:36.386Z,101178.98
2017-08-23T12:21:03.763Z,101175.58
2017-08-23T12:23:31.378Z,101177.33
2017-08-23T12:25:58.767Z,101173.28
2017-08-23T12:28:26.171Z,101176.13
2017-08-23T12:30:53.556Z,101174.61
2017-08-23T12:33:20.951Z,101168.46
2017-08-23T12:35:48.548Z,101164.73
2017-08-23T12:38:15.951Z,101158.42
2017-08-23T12:40:43.347Z,101151.02
2017-08-23T12:43:10.747Z,101150.61
2017-08-23T12:45:38.131Z,101144.02
2017-08-23T12:48:05.523Z,101130.17
2017-08-23T12:50:32.910Z,101135.55
2017-08-23T12:53:00.320Z,101127.80
2017-08-23T12:55:27.722Z,101131.41
2017-08-23T12:57:55.127Z,101136.55
2017-08-23T13:00:22.528Z,101139.95
2017-08-23T13:02:49.919Z,101133.27
2017-08-23T13:05:17.327Z,101133.80
2017-08-23T13:07:44.735Z,101143.27
2017-08-23T13:10:12.342Z,101138.85
2017-08-23T13:12:39.738Z,101139.27
2017-08-23T13:15:07.140Z,101134.14
2017-08-23T13:17:34.522Z,101130.89
2017-08-23T13:20:01.923Z,101123.72
2017-08-23T13:22:29.311Z,101124.63
2017-08-23T13:24:56.719Z,101125.25
2017-08-23T13:27:24.113Z,101118.41
2017-08-23T13:29:51.526Z,101116.47
2017-08-23T13:32:18.919Z,101114.80
2017-08-23T13:34:46.307Z,101121.56
2017-08-23T13:37:13.711Z,101125.00
2017-08-23T13:39:41.095Z,101120.16
2017-08-23T13:42:08.494Z,101119.83
2017-08-23T13:44:35.906Z,101130.05
2017-08-23T13:47:03.296Z,101122.91
2017-08-23T13:49:30.678Z,101127.22
2017-08-23T13:51:58.071Z,101119.77
2017-08-23T13:54:25.700Z,101123.32
2017-08-23T13:56:53.110Z,101115.28
2017-08-23T13:59:20.516Z,101103.73
2017-08-23T14:01:47.911Z,101106.16
2017-08-23T14:04:15.336Z,101102.16
2017-08-23T14:06:42.737Z,101102.66
2017-08-23T14:09:10.176Z,101087.78
2017-08-23T14:11:37.590Z,101088.13
2017-08-23T14:14:04.984Z,101079.86
2017-08-23T14:16:32.370Z,101078.28
2017-08-23T14:18:59.775Z,101072.66
2017-08-23T14:21:27.163Z,101077.05
2017-08-23T14:23:54.567Z,101077.00
2017-08-23T14:26:21.971Z,101076.23
2017-08-23T14:28:49.379Z,101076.84
2017-08-23T14:31:16.767Z,101073.10
2017-08-23T14:33:44.167Z,101073.78
2017-08-23T14:36:11.783Z,101076.96
2017-08-23T14:38:39.166Z,101076.84
2017-08-23T14:41:06.577Z,101067.84
2017-08-23T14:43:33.968Z,101061.62
2017-08-23T14:46:01.358Z,101064.63
2017-08-23T14:48:28.757Z,101060.73
2017-08-23T14:50:56.147Z,101053.66
2017-08-23T14:53:23.548Z,101045.66
2017-08-23T14:55:50.934Z,101037.63
2017-08-23T14:58:18.336Z,101029.31
2017-08-23T15:00:45.723Z,101029.22
2017-08-23T15:03:13.897Z,101031.03
2017-08-23T15:05:41.298Z,101032.28
2017-08-23T15:08:08.695Z,101030.60
2017-08-23T15:10:36.087Z,101028.12
2017-08-23T15:13:03.498Z,101032.06
2017-08-23T15:15:31.111Z,101030.47
2017-08-23T15:17:58.507Z,101028.49
2017-08-23T15:20:26.119Z,101034.55
2017-08-23T15:22:53.511Z,101024.38
2017-08-23T15:25:20.911Z,101029.42
2017-08-23T15:27:48.308Z,101027.08
2017-08-23T15:30:15.714Z,101030.62
2017-08-23T15:32:43.166Z,101026.05
2017-08-23T15:35:10.559Z,101025.09
2017-08-23T15:37:38.006Z,101027.49
2017-08-23T15:40:05.407Z,101032.08
2017-08-23T15:42:32.811Z,101035.40
2017-08-23T15:45:00.216Z,101035.40
2017-08-23T15:47:27.622Z,101029.94
2017-08-23T15:49:55.024Z,101024.59
2017-08-23T15:52:22.626Z,101027.34
2017-08-23T15:54:50.019Z,101037.37
2017-08-23T15:57:17.419Z,101033.00
2017-08-23T15:59:44.817Z,101039.66
2017-08-23T16:02:12.214Z,101031.52
2017-08-23T16:04:39.599Z,101030.42
2017-08-23T16:07:07.559Z,101036.30
2017-08-23T16:09:34.948Z,101035.08
2017-08-23T16:12:07.706Z,101035.55
2017-08-23T16:14:35.108Z,101025.64
2017-08-23T16:17:02.493Z,101022.67
2017-08-23T16:19:29.884Z,101023.84
2017-08-23T16:21:59.279Z,101026.90
2017-08-23T16:24:26.683Z,101023.86
2017-08-23T16:26:54.075Z,101026.87
2017-08-23T16:29:21.545Z,101021.99
2017-08-23T16:31:48.919Z,101012.69
2017-08-23T16:34:16.320Z,101016.17
2017-08-23T16:36:43.711Z,101014.31
2017-08-23T16:39:11.102Z,101018.77
2017-08-23T16:41:38.488Z,101020.02
2017-08-23T16:44:05.891Z,101019.34
2017-08-23T16:46:33.275Z,101018.67
2017-08-23T16:49:00.679Z,101012.02
2017-08-23T16:51:28.067Z,101014.94
2017-08-23T16:53:55.479Z,101010.77
2017-08-23T16:56:22.882Z,101010.55
2017-08-23T16:58:50.282Z,101005.67
2017-08-23T17:01:17.687Z,101003.09
2017-08-23T17:03:45.095Z,100998.11
2017-08-23T17:06:12.506Z,100996.14
2017-08-23T17:08:39.903Z,101002.09
2017-08-23T17:11:07.306Z,100998.94
2017-08-23T17:13:34.706Z,100995.41
2017-08-23T17:16:02.105Z,100987.88
2017-08-23T17:18:29.487Z,100993.27
2017-08-23T17:20:57.095Z,100995.70
2017-08-23T17:23:24.487Z,100994.55
2017-08-23T17:25:51.886Z,100996.38
2017-08-23T17:28:19.271Z,100993.01
2017-08-23T17:30:46.676Z,100989.48
2017-08-23T17:33:14.059Z,100980.75
2017-08-23T17:35:41.462Z,100982.11
2017-08-23T17:38:08.864Z,100983.40
2017-08-23T17:40:36.275Z,100984.95
2017-08-23T17:43:03.660Z,100982.47
2017-08-23T17:45:31.046Z,100982.83
2017-08-23T17:47:58.441Z,100981.90
2017-08-23T17:50:25.831Z,100980.33
2017-08-23T17:52:53.232Z,100976.70
2017-08-23T17:55:20.731Z,100966.48
2017-08-23T17:57:48.140Z,100963.66
2017-08-23T18:00:15.604Z,100968.77
2017-08-23T18:02:43.209Z,100956.18
2017-08-23T18:05:10.599Z,100954.48
2017-08-23T18:07:37.995Z,100949.63
2017-08-23T18:10:05.420Z,100943.78
2017-08-23T18:12:32.811Z,100942.59
2017-08-23T18:15:00.219Z,100943.03
2017-08-23T18:17:27.633Z,100933.75
2017-08-23T18:19:55.030Z,100942.11
2017-08-23T18:22:22.503Z,100934.69
2017-08-23T18:24:50.088Z,100937.37
2017-08-23T18:27:17.498Z,100933.75
2017-08-23T18:29:44.903Z,100941.83
2017-08-23T18:32:12.334Z,100950.08
2017-08-23T18:34:39.774Z,100940.67
2017-08-23T18:37:07.154Z,100947.23
2017-08-23T18:39:34.547Z,100950.44
2017-08-23T18:42:02.155Z,100950.45
2017-08-23T18:44:30.293Z,100947.92
2017-08-23T18:46:58.441Z,100953.05
2017-08-23T18:49:25.868Z,100958.27
2017-08-23T18:51:54.400Z,100943.44
2017-08-23T18:54:21.865Z,100941.27
2017-08-23T18:56:49.315Z,100935.71
2017-08-23T18:59:16.797Z,100940.16
2017-08-23T19:01:44.339Z,100939.41
2017-08-23T19:04:11.818Z,100935.70
2017-08-23T19:06:39.292Z,100949.77
2017-08-23T19:09:06.776Z,100948.52
2017-08-23T19:11:34.355Z,100948.56
2017-08-23T19:14:01.948Z,100941.66
2017-08-23T19:16:29.336Z,100940.23
2017-08-23T19:18:56.982Z,100939.84
2017-08-23T19:21:24.398Z,100930.28
2017-08-23T19:23:51.783Z,100937.38
2017-08-23T19:26:19.184Z,100931.87
2017-08-23T19:28:46.578Z,100931.93
2017-08-23T19:31:13.982Z,100935.41
2017-08-23T19:33:41.374Z,100931.70
2017-08-23T19:36:08.795Z,100942.58
2017-08-23T19:38:36.175Z,100942.58
2017-08-23T19:41:03.572Z,100949.48
2017-08-23T19:43:30.971Z,100940.06
2017-08-23T19:45:58.422Z,100940.17
2017-08-23T19:48:25.807Z,100944.30
2017-08-23T19:50:53.791Z,100948.87
2017-08-23T19:53:21.189Z,100946.27
2017-08-23T19:55:48.570Z,100945.30
2017-08-23T19:58:15.963Z,100950.06
2017-08-23T20:00:43.355Z,100955.20
2017-08-23T20:03:10.758Z,100949.31
2017-08-23T20:05:38.140Z,100943.24
2017-08-23T20:08:05.543Z,100950.08
2017-08-23T20:10:32.943Z,100943.71
2017-08-23T20:13:00.360Z,100945.24
2017-08-23T20:15:27.743Z,100940.77
2017-08-23T20:17:55.172Z,100935.16
2017-08-23T20:20:22.573Z,100931.87
2017-08-23T20:22:49.960Z,100930.75
2017-08-23T20:25:17.360Z,100940.10
2017-08-23T20:27:44.791Z,100932.89
2017-08-23T20:30:12.187Z,100937.19
2017-08-23T20:32:39.574Z,100936.27
2017-08-23T20:35:06.996Z,100937.52
2017-08-23T20:37:34.379Z,100937.39
2017-08-23T20:40:01.791Z,100928.25
2017-08-23T20:42:29.172Z,100931.64
2017-08-23T20:44:56.567Z,100923.53
2017-08-23T20:47:23.963Z,100923.34
2017-08-23T20:49:51.368Z,100917.23
2017-08-23T20:52:18.755Z,100906.42
2017-08-23T20:54:46.143Z,100909.58
2017-08-23T20:57:13.533Z,100911.98
2017-08-23T20:59:40.947Z,100906.78
2017-08-23T21:02:08.339Z,100906.00
2017-08-23T21:04:35.727Z,100909.57
2017-08-23T21:07:03.143Z,100905.64
2017-08-23T21:09:30.584Z,100901.70
2017-08-23T21:11:57.963Z,100903.97
2017-08-23T21:14:25.355Z,100893.69
2017-08-23T21:16:52.749Z,100894.83
2017-08-23T21:19:20.146Z,100896.31
2017-08-23T21:21:47.534Z,100893.42
2017-08-23T21:24:14.927Z,100889.50
2017-08-23T21:26:42.320Z,100893.30
2017-08-23T21:29:09.710Z,100894.38
2017-08-23T21:31:37.107Z,100894.53
2017-08-23T21:34:04.498Z,100893.48
2017-08-23T21:36:31.895Z,100896.87
2017-08-23T21:38:59.287Z,100902.00
2017-08-23T21:41:26.713Z,100902.61
2017-08-23T21:43:54.104Z,100903.67
2017-08-23T21:46:21.504Z,100907.87
2017-08-23T21:48:48.900Z,100906.48
2017-08-23T21:51:16.301Z,100906.03
2017-08-23T21:53:43.686Z,100892.30
2017-08-23T21:56:11.071Z,100895.25
2017-08-23T21:58:38.476Z,100891.42
2017-08-23T22:01:06.084Z,100889.78
2017-08-23T22:03:33.491Z,100894.44
2017-08-23T22:06:00.876Z,100888.58
2017-08-23T22:08:28.271Z,100877.79
2017-08-23T22:10:55.667Z,100877.09
2017-08-23T22:13:23.063Z,100875.42
2017-08-23T22:15:50.451Z,100871.95
2017-08-23T22:18:17.842Z,100865.45
2017-08-23T22:20:45.251Z,100860.88
2017-08-23T22:23:12.701Z,100853.72
2017-08-23T22:25:40.083Z,100850.18
2017-08-23T22:28:07.457Z,100847.72
2017-08-23T22:30:34.862Z,100843.88
2017-08-23T22:33:02.245Z,100849.72
2017-08-23T22:35:29.648Z,100850.37
2017-08-23T22:37:57.039Z,100852.45
2017-08-23T22:40:24.451Z,100846.59
2017-08-23T22:42:51.848Z,100839.61
2017-08-23T22:45:19.242Z,100831.68
2017-08-23T22:47:46.643Z,100834.53
2017-08-23T22:50:14.043Z,100829.63
2017-08-23T22:52:41.433Z,100832.95
2017-08-23T22:55:08.839Z,100831.34
2017-08-23T22:57:36.228Z,100835.30
2017-08-23T23:00:03.802Z,100833.36
2017-08-23T23:02:31.190Z,100826.52
2017-08-23T23:04:58.586Z,100822.42
2017-08-23T23:07:25.966Z,100810.86
2017-08-23T23:09:53.375Z,100809.77
2017-08-23T23:12:20.763Z,100808.11
2017-08-23T23:14:48.358Z,100809.53
2017-08-23T23:17:15.969Z,100803.30
2017-08-23T23:19:43.356Z,100792.59
2017-08-23T23:22:10.754Z,100797.31
2017-08-23T23:24:38.136Z,100788.36
2017-08-23T23:27:05.539Z,100779.25
2017-08-23T23:29:32.927Z,100782.19
2017-08-23T23:32:00.322Z,100778.25
2017-08-23T23:34:27.728Z,100777.58
2017-08-23T23:36:55.112Z,100784.47
2017-08-23T23:39:22.511Z,100779.84
2017-08-23T23:41:49.907Z,100778.36
2017-08-23T23:44:17.295Z,100776.66
2017-08-23T23:46:44.701Z,100770.25
2017-08-23T23:49:12.083Z,100769.34
2017-08-23T23:51:39.486Z,100766.84
2017-08-23T23:54:06.871Z,100760.45
2017-08-23T23:56:34.275Z,100750.90
2017-08-23T23:59:01.658Z,100748.84
